Time;durP1;ratioP1;P1;durP2;ratioP2;P2;SDS_P1;SDS_P2;PMS_P1;PMS_P2;Temp;Humidity;BMP_temperature;BMP_pressure;BME280_temperature;BME280_humidity;BME280_pressure;Samples;Min_cycle;Max_cycle;Signal;HPM_P1;HPM_P2
2022/04/23 00:01:33;;;;;;;4.67;3.10;;;21.00;41.40;;;;;;4992821;28;89265;-65
2022/04/23 00:04:01;;;;;;;2.90;2.40;;;21.00;41.40;;;;;;4993065;28;90438;-65
2022/04/23 00:06:30;;;;;;;2.70;2.20;;;21.00;41.30;;;;;;4993244;28;88698;-65
2022/04/23 00:08:58;;;;;;;3.93;1.90;;;21.00;41.30;;;;;;4993389;28;89926;-65
2022/04/23 00:11:25;;;;;;;2.93;2.03;;;21.00;41.40;;;;;;4990026;28;90667;-68
2022/04/23 00:13:54;;;;;;;6.17;2.53;;;21.00;41.30;;;;;;4992714;28;90347;-66
2022/04/23 00:16:24;;;;;;;3.63;2.13;;;21.00;41.30;;;;;;4991364;28;88905;-65
2022/04/23 00:18:52;;;;;;;3.93;2.60;;;21.00;41.30;;;;;;4992539;28;89500;-66
2022/04/23 00:21:20;;;;;;;2.50;1.80;;;21.00;41.30;;;;;;4991808;28;90741;-66
2022/04/23 00:23:48;;;;;;;2.73;1.77;;;21.00;41.40;;;;;;4994870;28;89601;-65
2022/04/23 00:26:16;;;;;;;3.77;1.87;;;20.90;41.30;;;;;;4991497;28;88921;-65
2022/04/23 00:28:44;;;;;;;2.60;2.20;;;20.80;41.30;;;;;;4993086;28;89516;-65
2022/04/23 00:31:13;;;;;;;4.77;2.57;;;20.80;41.40;;;;;;4995993;28;90393;-65
2022/04/23 00:33:43;;;;;;;3.23;2.00;;;20.70;41.40;;;;;;4997184;28;89822;-64
2022/04/23 00:36:11;;;;;;;2.17;1.97;;;20.70;41.40;;;;;;4996897;28;88754;-65
2022/04/23 00:38:40;;;;;;;2.17;1.90;;;20.70;41.50;;;;;;4995875;28;89250;-65
2022/04/23 00:41:08;;;;;;;3.27;2.03;;;20.70;41.40;;;;;;4993723;28;88647;-65
2022/04/23 00:43:36;;;;;;;3.80;2.07;;;20.80;41.50;;;;;;4991582;28;91972;-64
2022/04/23 00:46:05;;;;;;;1.93;1.77;;;20.80;41.40;;;;;;4994272;28;90830;-64
2022/04/23 00:48:36;;;;;;;1.80;1.63;;;20.70;41.40;;;;;;4995926;28;89693;-65
2022/04/23 00:51:05;;;;;;;2.70;2.00;;;20.70;41.40;;;;;;4995902;28;91090;-65
2022/04/23 00:53:33;;;;;;;2.03;1.83;;;20.70;41.40;;;;;;4997098;28;89717;-65
2022/04/23 00:56:01;;;;;;;7.43;2.30;;;20.70;41.50;;;;;;4995375;28;90210;-64
2022/04/23 00:58:29;;;;;;;2.73;2.07;;;20.70;41.60;;;;;;4994723;28;88664;-66
2022/04/23 01:00:57;;;;;;;3.70;1.90;;;20.70;41.50;;;;;;4995572;28;93114;-65
2022/04/23 01:03:25;;;;;;;2.33;1.90;;;20.60;41.50;;;;;;4997340;28;89660;-66
2022/04/23 01:05:55;;;;;;;2.77;2.10;;;20.60;41.50;;;;;;4993899;28;89926;-65
2022/04/23 01:08:25;;;;;;;3.53;2.20;;;20.60;41.50;;;;;;4994884;28;89061;-65
2022/04/23 01:10:53;;;;;;;2.40;2.00;;;20.60;41.60;;;;;;4996755;28;92348;-65
2022/04/23 01:13:25;;;;;;;2.63;2.00;;;20.60;41.60;;;;;;4996690;28;89662;-65
2022/04/23 01:15:58;;;;;;;3.17;2.37;;;20.60;41.60;;;;;;4995893;28;88873;-65
2022/04/23 01:18:26;;;;;;;2.83;2.23;;;20.60;41.60;;;;;;4996259;28;88440;-65
2022/04/23 01:20:56;;;;;;;3.17;2.27;;;20.50;41.60;;;;;;4995998;28;90590;-64
2022/04/23 01:23:24;;;;;;;2.43;2.07;;;20.50;41.70;;;;;;4995916;28;90155;-64
2022/04/23 01:25:53;;;;;;;3.93;1.90;;;20.50;41.70;;;;;;4993687;28;90316;-65
2022/04/23 01:28:21;;;;;;;2.17;1.93;;;20.50;41.70;;;;;;4995087;28;89654;-66
2022/04/23 01:30:50;;;;;;;3.20;1.87;;;20.50;41.70;;;;;;4996745;28;90942;-65
2022/04/23 01:33:18;;;;;;;2.97;2.27;;;20.50;41.80;;;;;;4995260;28;88870;-65
2022/04/23 01:35:46;;;;;;;1.90;1.70;;;20.50;41.80;;;;;;4995150;28;88704;-64
2022/04/23 01:38:16;;;;;;;3.20;2.50;;;20.50;41.90;;;;;;4996259;28;89722;-65
2022/04/23 01:40:44;;;;;;;2.80;2.13;;;20.50;41.90;;;;;;4995076;28;90691;-64
2022/04/23 01:43:12;;;;;;;1.97;1.70;;;20.50;41.90;;;;;;4994541;28;94076;-64
2022/04/23 01:45:40;;;;;;;3.23;2.20;;;20.40;41.90;;;;;;4995000;28;93027;-64
2022/04/23 01:48:09;;;;;;;3.57;2.50;;;20.40;41.90;;;;;;4994368;28;88625;-67
2022/04/23 01:50:37;;;;;;;2.80;1.97;;;20.40;41.90;;;;;;4996369;28;90795;-66
2022/04/23 01:53:05;;;;;;;3.93;2.77;;;20.40;42.00;;;;;;4994192;28;89751;-66
2022/04/23 01:55:35;;;;;;;2.40;2.20;;;20.40;42.00;;;;;;4994725;28;89065;-67
2022/04/23 01:58:03;;;;;;;5.07;3.13;;;20.30;42.00;;;;;;4995604;28;88660;-66
2022/04/23 02:00:31;;;;;;;2.77;2.20;;;20.30;42.00;;;;;;4995346;28;93743;-69
2022/04/23 02:02:59;;;;;;;2.07;1.87;;;20.30;42.00;;;;;;4994742;28;89725;-64
2022/04/23 02:05:27;;;;;;;2.77;2.10;;;20.30;42.70;;;;;;4993047;28;90140;-66
2022/04/23 02:07:55;;;;;;;2.87;2.53;;;20.40;42.20;;;;;;4992248;28;90201;-66
2022/04/23 02:10:23;;;;;;;2.90;2.60;;;20.40;42.20;;;;;;4995186;28;90638;-66
2022/04/23 02:12:53;;;;;;;4.17;2.60;;;20.40;42.20;;;;;;4994518;28;90167;-66
2022/04/23 02:15:21;;;;;;;4.40;2.47;;;20.40;42.20;;;;;;4995569;28;93624;-67
2022/04/23 02:17:50;;;;;;;2.37;2.07;;;20.40;42.20;;;;;;4994830;28;88695;-67
2022/04/23 02:20:18;;;;;;;3.60;3.20;;;20.40;42.20;;;;;;4994911;28;89307;-66
2022/04/23 02:22:47;;;;;;;2.20;2.00;;;20.40;42.20;;;;;;4993825;28;89544;-66
2022/04/23 02:25:16;;;;;;;5.30;3.17;;;20.40;42.90;;;;;;4993086;28;88775;-66
2022/04/23 02:27:45;;;;;;;3.03;2.37;;;20.40;42.30;;;;;;4995107;28;90242;-66
2022/04/23 02:30:15;;;;;;;4.43;2.83;;;20.40;42.30;;;;;;4991375;28;91229;-67
2022/04/23 02:32:43;;;;;;;2.80;2.40;;;20.40;42.30;;;;;;4993802;28;90537;-66
2022/04/23 02:35:11;;;;;;;3.80;3.07;;;20.40;42.30;;;;;;4994064;28;90590;-66
2022/04/23 02:37:42;;;;;;;4.03;2.73;;;20.40;43.00;;;;;;4995823;28;88712;-67
2022/04/23 02:40:10;;;;;;;2.80;2.17;;;20.40;42.30;;;;;;4993634;28;90913;-65
2022/04/23 02:42:39;;;;;;;3.43;2.67;;;20.40;42.30;;;;;;4995072;28;89688;-66
2022/04/23 02:45:08;;;;;;;3.43;2.60;;;20.40;42.30;;;;;;4993990;28;89011;-66
2022/04/23 02:47:43;;;;;;;2.73;2.30;;;20.40;42.30;;;;;;4995056;28;88680;-66
2022/04/23 02:50:12;;;;;;;3.83;2.70;;;20.40;42.40;;;;;;4993200;28;90588;-65
2022/04/23 02:52:41;;;;;;;4.70;2.83;;;20.40;42.40;;;;;;4994295;28;89701;-66
2022/04/23 02:55:09;;;;;;;2.90;2.70;;;20.40;42.50;;;;;;4993725;28;89847;-65
2022/04/23 02:57:37;;;;;;;4.93;3.40;;;20.40;42.40;;;;;;4993143;28;88620;-67
2022/04/23 03:00:10;;;;;;;4.73;2.90;;;20.40;42.50;;;;;;4992183;28;90480;-66
2022/04/23 03:02:38;;;;;;;2.67;2.43;;;20.30;42.50;;;;;;4993336;28;89959;-66
2022/04/23 03:05:09;;;;;;;5.43;3.53;;;20.30;42.50;;;;;;4994274;28;89133;-66
2022/04/23 03:07:38;;;;;;;6.07;3.07;;;20.30;42.60;;;;;;4994735;28;89691;-66
2022/04/23 03:10:07;;;;;;;4.57;3.47;;;20.30;42.60;;;;;;4994918;28;89398;-66
2022/04/23 03:12:36;;;;;;;3.77;2.87;;;20.30;42.60;;;;;;4993692;28;90487;-66
2022/04/23 03:15:06;;;;;;;5.80;3.67;;;20.20;42.60;;;;;;4993186;28;91819;-67
2022/04/23 03:17:34;;;;;;;5.23;3.30;;;20.20;42.60;;;;;;4995150;28;88605;-66
2022/04/23 03:20:02;;;;;;;3.90;3.50;;;20.20;42.70;;;;;;4992427;28;90597;-66
2022/04/23 03:22:31;;;;;;;6.63;3.73;;;20.20;42.70;;;;;;4993096;28;89806;-67
2022/04/23 03:24:59;;;;;;;7.57;3.57;;;20.20;42.70;;;;;;4994114;28;89613;-66
2022/04/23 03:27:28;;;;;;;4.63;3.13;;;20.10;42.70;;;;;;4993077;28;88855;-66
2022/04/23 03:29:58;;;;;;;4.87;3.53;;;20.10;42.70;;;;;;4993419;28;91370;-66
2022/04/23 03:32:26;;;;;;;5.90;3.33;;;20.10;42.80;;;;;;4991666;28;90489;-67
2022/04/23 03:34:54;;;;;;;6.47;3.63;;;20.10;42.80;;;;;;4995290;28;89811;-67
2022/04/23 03:37:23;;;;;;;6.07;3.60;;;20.00;42.80;;;;;;4994143;28;88676;-68
2022/04/23 03:39:52;;;;;;;5.27;3.73;;;20.00;42.90;;;;;;4993176;28;90217;-67
2022/04/23 03:42:20;;;;;;;5.47;3.87;;;20.00;43.00;;;;;;4993440;28;90437;-66
2022/04/23 03:44:49;;;;;;;4.67;4.03;;;20.00;43.00;;;;;;4995433;28;89535;-66
2022/04/23 03:47:17;;;;;;;8.17;3.33;;;20.00;43.00;;;;;;4991429;28;89737;-66
2022/04/23 03:49:45;;;;;;;5.47;3.10;;;20.00;43.10;;;;;;4992827;28;90633;-66
2022/04/23 03:52:13;;;;;;;3.70;2.80;;;20.00;43.10;;;;;;4992180;28;90548;-66
2022/04/23 03:54:41;;;;;;;6.30;3.77;;;20.00;43.10;;;;;;4993687;28;89842;-67
2022/04/23 03:57:10;;;;;;;8.03;4.20;;;20.00;43.10;;;;;;4987233;28;88598;-66
2022/04/23 03:59:38;;;;;;;5.80;3.33;;;20.00;43.10;;;;;;4992724;28;90743;-67
2022/04/23 04:02:06;;;;;;;5.20;3.53;;;20.00;43.10;;;;;;4992949;28;92315;-66
2022/04/23 04:04:35;;;;;;;5.83;4.03;;;20.00;43.20;;;;;;4997236;28;88798;-66
2022/04/23 04:07:04;;;;;;;5.13;4.00;;;19.90;43.20;;;;;;4997608;28;89702;-66
2022/04/23 04:09:31;;;;;;;5.43;3.57;;;19.90;43.20;;;;;;4995974;28;90643;-67
2022/04/23 04:12:02;;;;;;;4.77;3.70;;;19.90;43.30;;;;;;4996958;28;90445;-66
2022/04/23 04:14:34;;;;;;;9.17;4.17;;;19.90;43.30;;;;;;4996943;28;92120;-67
2022/04/23 04:17:04;;;;;;;5.47;3.60;;;20.00;43.40;;;;;;4996204;28;89942;-67
2022/04/23 04:19:35;;;;;;;5.50;4.13;;;19.90;43.30;;;;;;4995992;28;90544;-66
2022/04/23 04:22:04;;;;;;;5.13;4.03;;;19.90;43.40;;;;;;4997264;28;88562;-66
2022/04/23 04:24:32;;;;;;;3.90;3.27;;;19.80;43.30;;;;;;4994863;28;89237;-67
2022/04/23 04:27:02;;;;;;;4.97;3.80;;;19.90;43.50;;;;;;4996737;28;89391;-67
2022/04/23 04:29:32;;;;;;;5.03;4.00;;;19.80;43.40;;;;;;4996230;28;89642;-66
2022/04/23 04:32:01;;;;;;;5.87;3.27;;;19.80;43.40;;;;;;4995824;28;90057;-65
2022/04/23 04:34:30;;;;;;;6.37;3.67;;;19.80;43.50;;;;;;4995990;28;90791;-66
2022/04/23 04:37:05;;;;;;;4.70;3.93;;;19.80;43.50;;;;;;4993351;28;88648;-64
2022/04/23 04:39:33;;;;;;;5.00;3.60;;;19.80;43.60;;;;;;4982064;28;90793;-64
2022/04/23 04:42:01;;;;;;;3.97;3.10;;;19.90;43.70;;;;;;4981867;28;89940;-65
2022/04/23 04:44:29;;;;;;;3.13;2.60;;;20.00;43.80;;;;;;4982026;28;89791;-64
2022/04/23 04:46:58;;;;;;;3.43;2.70;;;20.10;43.80;;;;;;4981751;28;88489;-65
2022/04/23 04:49:27;;;;;;;3.07;2.50;;;20.20;44.40;;;;;;4982478;28;90612;-64
2022/04/23 04:51:55;;;;;;;4.97;2.43;;;20.30;43.80;;;;;;4982172;28;88904;-65
2022/04/23 04:54:23;;;;;;;2.93;2.67;;;20.40;43.80;;;;;;4981925;28;88407;-66
2022/04/23 04:56:51;;;;;;;4.43;2.60;;;20.50;43.80;;;;;;4992388;28;88329;-64
2022/04/23 04:59:20;;;;;;;3.77;2.90;;;20.60;43.80;;;;;;4987770;28;93100;-63
2022/04/23 05:01:48;;;;;;;3.90;2.57;;;20.70;43.80;;;;;;5001591;28;90237;-64
2022/04/23 05:04:18;;;;;;;2.50;2.20;;;20.80;43.70;;;;;;4996876;28;88420;-64
2022/04/23 05:06:46;;;;;;;5.03;2.47;;;20.90;43.70;;;;;;4989707;28;88423;-64
2022/04/23 05:09:14;;;;;;;2.50;2.03;;;21.00;44.30;;;;;;4982180;28;89829;-64
2022/04/23 05:11:42;;;;;;;2.93;2.30;;;21.00;43.60;;;;;;4983987;28;88199;-64
2022/04/23 05:14:10;;;;;;;2.83;2.40;;;21.10;43.60;;;;;;5001405;28;88779;-64
2022/04/23 05:16:38;;;;;;;3.53;2.00;;;21.10;43.60;;;;;;5001775;28;88459;-64
2022/04/23 05:19:06;;;;;;;3.30;2.60;;;21.10;43.60;;;;;;5001525;28;90045;-64
2022/04/23 05:21:37;;;;;;;6.13;2.43;;;21.20;43.60;;;;;;4982175;28;90026;-64
2022/04/23 05:24:06;;;;;;;3.33;2.40;;;21.20;43.50;;;;;;4981497;28;88945;-64
2022/04/23 05:26:35;;;;;;;4.80;2.43;;;21.20;43.50;;;;;;4981383;28;88597;-64
2022/04/23 05:29:03;;;;;;;3.97;2.10;;;21.20;43.50;;;;;;4985441;28;90914;-63
2022/04/23 05:31:32;;;;;;;4.07;2.63;;;21.30;43.50;;;;;;4981484;28;90175;-64
2022/04/23 05:34:01;;;;;;;9.00;2.83;;;21.30;43.50;;;;;;4981514;28;92882;-64
2022/04/23 05:36:29;;;;;;;3.17;2.27;;;21.30;43.50;;;;;;4986834;28;88675;-64
2022/04/23 05:38:58;;;;;;;2.57;2.30;;;21.30;43.40;;;;;;4994050;28;91084;-65
2022/04/23 05:41:26;;;;;;;2.27;2.07;;;21.30;43.40;;;;;;4995816;28;91683;-64
2022/04/23 05:43:54;;;;;;;3.87;2.13;;;21.40;43.40;;;;;;4987721;28;89169;-64
2022/04/23 05:46:22;;;;;;;3.87;2.40;;;21.40;43.40;;;;;;4981327;28;88501;-64
2022/04/23 05:48:50;;;;;;;4.43;2.23;;;21.40;43.40;;;;;;4981472;28;90416;-64
2022/04/23 05:51:18;;;;;;;3.00;2.07;;;21.50;43.50;;;;;;4981248;28;90145;-64
2022/04/23 05:53:46;;;;;;;2.63;1.83;;;21.50;43.50;;;;;;4980717;28;88593;-64
2022/04/23 05:56:15;;;;;;;3.53;2.30;;;21.50;43.40;;;;;;4961823;28;88716;-64
2022/04/23 05:58:44;;;;;;;2.90;2.33;;;21.50;43.40;;;;;;4963455;28;90599;-64
2022/04/23 06:01:11;;;;;;;2.80;2.23;;;21.50;43.40;;;;;;4981242;28;92708;-64
2022/04/23 06:03:41;;;;;;;3.80;2.73;;;21.60;43.50;;;;;;4989833;28;88462;-64
2022/04/23 06:06:09;;;;;;;2.80;2.20;;;21.60;43.50;;;;;;5001189;28;88479;-64
2022/04/23 06:08:41;;;;;;;3.67;2.37;;;21.60;43.40;;;;;;5000251;28;89873;-64
2022/04/23 06:11:09;;;;;;;3.37;2.40;;;21.60;43.40;;;;;;4995520;28;90156;-64
2022/04/23 06:13:39;;;;;;;2.60;2.40;;;21.70;43.60;;;;;;4980774;28;89235;-65
2022/04/23 06:16:06;;;;;;;3.47;2.30;;;21.70;43.70;;;;;;4980615;28;88732;-64
2022/04/23 06:18:36;;;;;;;4.07;2.37;;;21.70;43.60;;;;;;4980582;28;90668;-64
2022/04/23 06:21:04;;;;;;;4.20;2.40;;;21.70;43.60;;;;;;4980623;28;90107;-64
2022/04/23 06:23:32;;;;;;;3.43;2.33;;;21.70;43.60;;;;;;4980569;28;91288;-64
2022/04/23 06:26:00;;;;;;;4.73;2.50;;;21.80;43.70;;;;;;4980044;28;88630;-64
2022/04/23 06:28:28;;;;;;;2.73;2.30;;;21.80;43.70;;;;;;4979773;28;90564;-64
2022/04/23 06:30:57;;;;;;;3.57;2.73;;;21.80;43.70;;;;;;4980500;28;89620;-64
2022/04/23 06:33:25;;;;;;;2.77;2.40;;;21.80;43.70;;;;;;4980298;28;89029;-64
2022/04/23 06:35:53;;;;;;;3.77;2.47;;;21.80;43.70;;;;;;4980337;28;88701;-64
2022/04/23 06:38:21;;;;;;;3.77;2.63;;;21.90;43.80;;;;;;4980770;28;90872;-64
2022/04/23 06:40:49;;;;;;;3.60;3.03;;;21.90;43.80;;;;;;4980236;28;90120;-64
2022/04/23 06:43:17;;;;;;;3.63;2.93;;;22.00;43.80;;;;;;4968794;28;90524;-64
2022/04/23 06:45:46;;;;;;;3.77;2.43;;;22.00;43.80;;;;;;4973195;28;88530;-64
2022/04/23 06:48:15;;;;;;;3.37;2.10;;;22.00;43.80;;;;;;4989831;28;90605;-64
2022/04/23 06:50:48;;;;;;;3.57;2.77;;;22.00;43.80;;;;;;4983737;28;89976;-64
2022/04/23 06:53:16;;;;;;;4.83;2.17;;;22.00;43.80;;;;;;4979510;28;88407;-64
2022/04/23 06:55:44;;;;;;;3.70;2.47;;;22.10;43.80;;;;;;4979973;28;88270;-64
2022/04/23 06:58:12;;;;;;;2.37;2.17;;;22.10;43.80;;;;;;4980154;28;90988;-64
2022/04/23 07:00:41;;;;;;;3.60;2.30;;;22.00;43.80;;;;;;4974869;28;92777;-64
2022/04/23 07:03:09;;;;;;;2.77;2.20;;;22.00;43.80;;;;;;4979359;28;88517;-64
2022/04/23 07:05:39;;;;;;;3.13;2.40;;;22.10;43.90;;;;;;4975498;28;88411;-64
2022/04/23 07:08:07;;;;;;;3.43;2.00;;;22.10;43.90;;;;;;4979652;28;90727;-64
2022/04/23 07:10:36;;;;;;;2.33;1.90;;;22.10;43.90;;;;;;4980187;28;89573;-64
2022/04/23 07:13:04;;;;;;;3.10;2.30;;;22.10;43.90;;;;;;4985439;28;89933;-64
2022/04/23 07:15:32;;;;;;;2.73;2.10;;;22.10;43.80;;;;;;4980357;28;88485;-64
2022/04/23 07:18:01;;;;;;;2.90;2.27;;;22.20;43.90;;;;;;4987955;28;91096;-65
2022/04/23 07:20:29;;;;;;;2.90;2.30;;;22.20;43.90;;;;;;4978064;28;89938;-64
2022/04/23 07:25:44;;;;;;;3.97;3.20;;;22.20;44.20;;;;;;4992985;28;88540;-64
2022/04/23 07:28:13;;;;;;;4.40;2.87;;;22.20;44.50;;;;;;4993884;28;90581;-64
2022/04/23 07:30:42;;;;;;;4.07;2.57;;;22.20;44.60;;;;;;4993049;28;90180;-65
2022/04/23 07:37:28;;;;;;;3.27;2.47;;;22.20;44.60;;;;;;4993000;28;90071;-64
2022/04/23 07:38:46;;;;;;;5.07;2.87;;;22.20;44.60;;;;;;4998855;28;90657;-64
2022/04/23 07:41:14;;;;;;;4.93;2.40;;;22.20;44.60;;;;;;5002476;28;89020;-64
2022/04/23 07:43:42;;;;;;;2.93;2.60;;;22.20;44.60;;;;;;5003092;28;88406;-64
2022/04/23 07:46:10;;;;;;;6.13;2.33;;;22.20;44.60;;;;;;5002510;28;88372;-65
2022/04/23 07:48:38;;;;;;;3.37;2.47;;;22.20;44.60;;;;;;5002828;28;89321;-65
2022/04/23 07:51:06;;;;;;;9.63;3.00;;;22.20;44.50;;;;;;5003171;28;88455;-65
2022/04/23 07:53:34;;;;;;;4.10;3.00;;;22.20;44.50;;;;;;4989590;28;89223;-64
2022/04/23 07:56:05;;;;;;;2.77;2.27;;;22.20;44.40;;;;;;4982970;28;88406;-64
2022/04/23 07:58:33;;;;;;;4.53;2.30;;;22.20;44.40;;;;;;4983247;28;92875;-64
2022/04/23 08:01:01;;;;;;;2.97;2.30;;;22.20;44.30;;;;;;4982931;28;92523;-65
2022/04/23 08:03:34;;;;;;;3.57;2.40;;;22.20;44.30;;;;;;4983190;28;89338;-64
2022/04/23 08:06:03;;;;;;;3.87;2.13;;;22.20;44.30;;;;;;4983060;28;88628;-64
2022/04/23 08:08:31;;;;;;;4.17;2.90;;;22.20;44.20;;;;;;4982692;28;89596;-66
2022/04/23 08:10:59;;;;;;;3.57;2.63;;;22.20;44.20;;;;;;4982105;28;89583;-65
2022/04/23 08:13:29;;;;;;;6.77;2.20;;;22.20;44.20;;;;;;4982951;28;88872;-65
2022/04/23 08:15:59;;;;;;;3.27;2.67;;;22.20;44.10;;;;;;4983531;28;88672;-65
2022/04/23 08:18:27;;;;;;;3.60;2.40;;;22.20;44.00;;;;;;4982716;28;89459;-65
2022/04/23 08:20:55;;;;;;;2.30;2.10;;;22.20;44.00;;;;;;4982796;28;89838;-65
2022/04/23 08:23:23;;;;;;;2.40;2.20;;;22.20;43.90;;;;;;4982695;28;89183;-64
2022/04/23 08:25:55;;;;;;;3.70;2.60;;;22.20;43.90;;;;;;4982348;28;88618;-66
2022/04/23 08:31:12;;;;;;;3.73;2.47;;;22.20;43.80;;;;;;4982952;28;90418;-65
2022/04/23 08:36:26;;;;;;;4.20;2.80;;;22.20;43.70;;;;;;4983042;28;88387;-65
2022/04/23 08:38:56;;;;;;;3.27;2.70;;;22.20;43.60;;;;;;4982614;28;91059;-64
2022/04/23 08:41:28;;;;;;;4.10;2.60;;;22.20;43.50;;;;;;4982408;28;90923;-65
2022/04/23 08:43:57;;;;;;;4.90;2.60;;;22.20;43.50;;;;;;4981746;28;92365;-65
2022/04/23 08:46:27;;;;;;;3.53;2.27;;;22.20;43.40;;;;;;4982248;28;88471;-64
2022/04/23 08:49:00;;;;;;;2.87;2.40;;;22.20;43.40;;;;;;4980900;28;92269;-65
2022/04/23 08:51:30;;;;;;;2.63;2.43;;;22.20;43.30;;;;;;4962110;28;90273;-64
2022/04/23 08:53:58;;;;;;;3.73;2.53;;;22.20;43.30;;;;;;4962589;28;90007;-65
2022/04/23 08:56:26;;;;;;;3.03;2.63;;;22.20;43.30;;;;;;4962967;28;88453;-65
2022/04/23 08:58:56;;;;;;;4.70;2.77;;;22.20;43.20;;;;;;4962439;28;89335;-65
2022/04/23 09:01:24;;;;;;;3.03;2.47;;;22.30;43.30;;;;;;4974556;28;89704;-64
2022/04/23 09:03:53;;;;;;;2.57;2.37;;;22.30;43.30;;;;;;4982179;28;92065;-65
2022/04/23 09:06:21;;;;;;;2.30;2.03;;;22.20;43.10;;;;;;4982035;28;88681;-64
2022/04/23 09:09:11;;;;;;;2.90;2.10;;;22.30;43.20;;;;;;4982275;28;90270;-64
2022/04/23 09:11:40;;;;;;;2.97;2.43;;;22.30;43.20;;;;;;4981425;28;90298;-64
2022/04/23 09:14:09;;;;;;;2.37;2.17;;;22.30;43.00;;;;;;4981313;28;88467;-65
2022/04/23 09:25:12;;;;;;;2.60;2.40;;;22.30;42.90;;;;;;4981569;28;89392;-65
2022/04/23 09:27:41;;;;;;;2.20;2.00;;;22.30;43.60;;;;;;4982347;28;88514;-65
2022/04/23 09:30:09;;;;;;;2.70;1.87;;;22.30;43.60;;;;;;4981357;28;90658;-65
2022/04/23 09:32:37;;;;;;;2.97;2.20;;;22.40;43.00;;;;;;4981493;28;90132;-65
2022/04/23 09:35:09;;;;;;;3.73;2.50;;;22.30;42.90;;;;;;4980857;28;88851;-65
2022/04/23 09:40:23;;;;;;;2.53;2.27;;;22.40;42.90;;;;;;4981530;28;89341;-65
2022/04/23 09:43:01;;;;;;;3.10;2.10;;;22.30;42.80;;;;;;4981022;28;90541;-65
2022/04/23 09:45:30;;;;;;;2.37;2.17;;;22.30;42.80;;;;;;4981503;28;88450;-65
2022/04/23 09:47:58;;;;;;;3.77;2.23;;;22.40;42.90;;;;;;4981432;28;88379;-65
2022/04/23 09:50:27;;;;;;;3.40;3.10;;;22.40;42.90;;;;;;4981020;28;88957;-64
2022/04/23 09:52:55;;;;;;;2.80;2.07;;;22.40;42.80;;;;;;4980476;28;89289;-65
2022/04/23 09:55:24;;;;;;;2.83;2.47;;;22.40;42.80;;;;;;4980679;28;88510;-65
2022/04/23 09:57:52;;;;;;;5.47;2.90;;;22.40;42.80;;;;;;4981563;28;88530;-65
2022/04/23 10:00:20;;;;;;;4.47;2.50;;;22.40;42.80;;;;;;4979747;28;91387;-65
2022/04/23 10:02:48;;;;;;;2.43;2.20;;;22.40;42.70;;;;;;4980896;28;90096;-65
2022/04/23 10:05:18;;;;;;;3.13;2.47;;;22.40;42.70;;;;;;4980963;28;92192;-65
2022/04/23 10:07:49;;;;;;;2.57;2.37;;;22.40;42.60;;;;;;4980865;28;88599;-64
2022/04/23 10:10:17;;;;;;;3.37;2.60;;;22.40;42.70;;;;;;4980186;28;88804;-64
2022/04/23 10:12:46;;;;;;;3.17;2.40;;;22.40;42.60;;;;;;4980477;28;90509;-65
2022/04/23 10:15:15;;;;;;;6.13;2.70;;;22.40;42.60;;;;;;4980424;28;88944;-65
2022/04/23 10:17:43;;;;;;;2.77;2.23;;;22.40;42.60;;;;;;4980675;28;88940;-64
2022/04/23 10:20:13;;;;;;;3.27;2.33;;;22.50;42.60;;;;;;4981239;28;93444;-65
2022/04/23 10:23:05;;;;;;;2.20;2.00;;;22.50;42.60;;;;;;4981337;28;93004;-65
2022/04/23 10:25:40;;;;;;;2.73;2.53;;;22.50;42.60;;;;;;4980501;28;88897;-65
2022/04/23 10:28:08;;;;;;;3.43;2.83;;;22.50;42.50;;;;;;4980664;28;88272;-64
2022/04/23 10:30:36;;;;;;;3.53;2.57;;;22.60;42.50;;;;;;4979897;28;90665;-65
2022/04/23 10:33:26;;;;;;;3.10;2.33;;;22.60;42.50;;;;;;4980352;28;88806;-64
2022/04/23 10:36:08;;;;;;;3.80;2.70;;;22.60;42.50;;;;;;4980113;28;88693;-65
2022/04/23 10:38:40;;;;;;;2.73;2.53;;;22.60;42.50;;;;;;4980574;28;88246;-65
2022/04/23 10:41:09;;;;;;;2.97;2.60;;;22.60;42.40;;;;;;4980782;28;89528;-66
2022/04/23 10:43:37;;;;;;;4.23;3.40;;;22.60;42.40;;;;;;4980487;28;88976;-65
2022/04/23 10:46:07;;;;;;;3.10;2.70;;;22.60;42.80;;;;;;4979678;28;88982;-65
2022/04/23 10:48:37;;;;;;;3.60;2.73;;;22.60;42.40;;;;;;4980798;28;88447;-65
2022/04/23 10:51:10;;;;;;;2.80;2.57;;;22.60;42.40;;;;;;4995807;28;90159;-64
2022/04/23 10:53:55;;;;;;;2.90;2.57;;;22.60;42.30;;;;;;4980138;28;89224;-65
2022/04/23 10:56:23;;;;;;;3.43;2.63;;;22.60;42.40;;;;;;4979775;28;88274;-65
2022/04/23 10:58:52;;;;;;;5.30;2.90;;;22.60;42.30;;;;;;4980133;28;88422;-65
2022/04/23 11:01:21;;;;;;;3.90;3.07;;;22.60;42.30;;;;;;4980272;28;92296;-65
2022/04/23 11:04:12;;;;;;;3.30;3.00;;;22.70;42.40;;;;;;4980936;28;90191;-65
2022/04/23 11:12:37;;;;;;;3.87;2.50;;;22.70;42.30;;;;;;4977287;28;92669;-65
2022/04/23 11:15:19;;;;;;;3.90;2.87;;;22.70;42.30;;;;;;4979268;28;88874;-65
2022/04/23 11:17:55;;;;;;;3.07;2.60;;;22.70;42.30;;;;;;4978951;28;88953;-66
2022/04/23 11:20:27;;;;;;;3.43;3.10;;;22.80;42.40;;;;;;4979433;28;88674;-65
2022/04/23 11:22:56;;;;;;;3.20;2.87;;;22.70;42.90;;;;;;4977471;28;90889;-65
2022/04/23 11:25:25;;;;;;;3.90;3.03;;;22.80;42.30;;;;;;4979754;28;89502;-65
2022/04/23 11:28:00;;;;;;;6.13;2.97;;;22.80;42.30;;;;;;4979272;28;89000;-65
2022/04/23 11:30:30;;;;;;;3.23;2.37;;;22.80;42.30;;;;;;4978214;28;88278;-66
2022/04/23 11:33:11;;;;;;;4.53;2.90;;;22.80;42.30;;;;;;4978514;28;89874;-65
2022/04/23 11:35:39;;;;;;;6.83;3.10;;;22.80;42.50;;;;;;4972521;28;92682;-64
2022/04/23 11:38:17;;;;;;;3.23;2.93;;;22.90;42.40;;;;;;4978970;28;88925;-65
2022/04/23 11:40:46;;;;;;;5.53;3.63;;;22.90;42.40;;;;;;4979000;28;88566;-65
2022/04/23 11:43:29;;;;;;;3.20;2.60;;;22.90;42.40;;;;;;4979059;28;90922;-65
2022/04/23 11:46:02;;;;;;;4.40;2.77;;;22.90;42.40;;;;;;4979295;28;89171;-65
2022/04/23 11:48:43;;;;;;;2.80;2.50;;;23.00;42.40;;;;;;4979103;28;88459;-65
2022/04/23 11:51:12;;;;;;;3.37;2.83;;;23.00;42.40;;;;;;4979441;28;88391;-65
2022/04/23 11:53:48;;;;;;;6.47;2.97;;;23.00;42.30;;;;;;4979365;28;91049;-65
2022/04/23 11:56:32;;;;;;;3.50;3.20;;;23.00;42.30;;;;;;4979482;28;92149;-65
2022/04/23 11:59:02;;;;;;;4.00;3.27;;;23.00;42.30;;;;;;4979177;28;91356;-65
2022/04/23 12:01:31;;;;;;;2.90;2.60;;;23.00;42.30;;;;;;4980112;28;88404;-65
2022/04/23 12:03:59;;;;;;;3.97;3.20;;;23.00;42.30;;;;;;4978924;28;90748;-65
2022/04/23 12:06:28;;;;;;;5.23;3.10;;;23.10;42.40;;;;;;4979164;28;88289;-65
2022/04/23 12:09:08;;;;;;;6.43;3.27;;;23.10;42.40;;;;;;4979709;28;89084;-65
2022/04/23 12:11:37;;;;;;;5.33;3.10;;;23.00;42.30;;;;;;4980001;28;88615;-65
2022/04/23 12:14:05;;;;;;;5.30;3.80;;;23.10;42.40;;;;;;4979532;28;89349;-65
2022/04/23 12:16:35;;;;;;;4.70;2.63;;;23.10;42.40;;;;;;4978070;28;89082;-65
2022/04/23 12:19:04;;;;;;;3.83;3.10;;;23.20;42.40;;;;;;4978663;28;88364;-65
2022/04/23 12:21:32;;;;;;;3.43;3.07;;;23.10;42.30;;;;;;4979094;28;88590;-65
2022/04/23 12:24:00;;;;;;;3.80;3.20;;;23.10;42.30;;;;;;4979993;28;90571;-65
2022/04/23 12:26:32;;;;;;;4.03;3.07;;;23.10;42.90;;;;;;4982620;28;92541;-65
2022/04/23 12:43:34;;;;;;;7.90;3.80;;;23.20;42.30;;;;;;4982452;28;88452;-64
2022/04/23 12:46:05;;;;;;;4.63;4.10;;;23.10;42.30;;;;;;4981692;28;89651;-66
2022/04/23 12:48:49;;;;;;;3.83;3.10;;;23.20;42.30;;;;;;4968513;28;88715;-65
2022/04/23 12:51:17;;;;;;;4.13;3.60;;;23.20;42.40;;;;;;4962875;28;88383;-65
2022/04/23 12:53:46;;;;;;;4.50;3.20;;;23.20;42.40;;;;;;4962989;28;88485;-65
2022/04/23 12:56:16;;;;;;;4.93;3.80;;;23.30;43.00;;;;;;4971699;28;91166;-65
2022/04/23 12:58:44;;;;;;;4.80;3.57;;;23.30;42.40;;;;;;4982106;28;89692;-65
2022/04/23 13:01:13;;;;;;;5.60;3.90;;;23.30;42.40;;;;;;4981953;28;89008;-65
2022/04/23 13:03:44;;;;;;;7.30;3.80;;;23.30;42.30;;;;;;4982471;28;88502;-65
2022/04/23 13:09:03;;;;;;;5.83;3.70;;;23.40;42.30;;;;;;4925843;28;88840;-65
2022/04/23 13:11:31;;;;;;;7.50;5.10;;;23.40;42.30;;;;;;4981821;28;89171;-65
2022/04/23 13:14:00;;;;;;;5.43;4.13;;;23.40;42.30;;;;;;4982049;28;88450;-65
2022/04/23 13:16:30;;;;;;;6.23;4.20;;;23.40;42.30;;;;;;4981945;28;89467;-65
2022/04/23 13:18:59;;;;;;;7.60;4.40;;;23.50;42.40;;;;;;4981691;28;90081;-66
2022/04/23 13:21:28;;;;;;;5.50;4.00;;;23.50;42.40;;;;;;4981426;28;88764;-64
2022/04/23 13:23:56;;;;;;;8.77;4.20;;;23.50;42.30;;;;;;4982014;28;88535;-65
2022/04/23 13:26:26;;;;;;;5.87;3.80;;;23.50;42.30;;;;;;4981440;28;89794;-65
2022/04/23 13:28:54;;;;;;;7.63;3.83;;;23.60;42.40;;;;;;4981673;28;90144;-65
2022/04/23 13:31:22;;;;;;;6.37;3.90;;;23.60;42.30;;;;;;4980824;28;92140;-65
2022/04/23 13:33:51;;;;;;;4.20;3.80;;;23.60;42.30;;;;;;4980991;28;88823;-65
2022/04/23 13:36:19;;;;;;;6.80;4.70;;;23.60;42.30;;;;;;4980111;28;91946;-65
2022/04/23 13:38:47;;;;;;;6.30;4.40;;;23.60;42.30;;;;;;4981329;28;89411;-65
2022/04/23 13:41:16;;;;;;;7.10;4.53;;;23.60;42.30;;;;;;4981518;28;89033;-69
2022/04/23 13:43:44;;;;;;;7.23;4.60;;;23.60;42.30;;;;;;4981490;28;88394;-65
2022/04/23 13:46:12;;;;;;;5.70;3.70;;;23.60;42.30;;;;;;4979710;28;89717;-65